Time;durP1;ratioP1;P1;durP2;ratioP2;P2;SDS_P1;SDS_P2;PMS_P1;PMS_P2;Temp;Humidity;BMP_temperature;BMP_pressure;BME280_temperature;BME280_humidity;BME280_pressure;Samples;Min_cycle;Max_cycle;Signal;HPM_P1;HPM_P2
2021/04/29 00:02:21;;;;;;;2.00;1.87;;;13.60;85.60;;;;;;5055934;28;20207;-84
2021/04/29 00:04:47;;;;;;;2.50;2.13;;;13.50;88.20;;;;;;5055652;28;20183;-84
2021/04/29 00:07:12;;;;;;;5.23;2.03;;;13.50;88.60;;;;;;5037828;28;20232;-82
2021/04/29 00:09:38;;;;;;;3.00;2.70;;;13.50;89.10;;;;;;5054462;28;20426;-84
2021/04/29 00:12:06;;;;;;;2.93;1.97;;;13.60;88.40;;;;;;5037754;28;20204;-84
2021/04/29 00:14:31;;;;;;;6.10;2.33;;;13.60;88.40;;;;;;5054253;28;20193;-83
2021/04/29 00:16:57;;;;;;;4.47;2.20;;;13.70;89.90;;;;;;5055780;28;20520;-80
2021/04/29 00:19:23;;;;;;;3.47;2.70;;;13.60;90.50;;;;;;5054417;28;20527;-83
2021/04/29 00:21:48;;;;;;;5.10;2.57;;;13.60;91.30;;;;;;5054402;28;20180;-82
2021/04/29 00:24:14;;;;;;;5.27;3.07;;;13.80;92.50;;;;;;5055624;28;20763;-81
2021/04/29 00:26:40;;;;;;;6.27;3.30;;;13.70;93.40;;;;;;5054459;28;20209;-82
2021/04/29 00:29:05;;;;;;;4.90;3.00;;;13.70;94.60;;;;;;5054157;28;20185;-83
2021/04/29 00:31:31;;;;;;;5.03;2.70;;;13.70;95.30;;;;;;5055554;28;20182;-82
2021/04/29 00:34:00;;;;;;;5.60;3.40;;;13.60;97.30;;;;;;5054545;28;20177;-84
2021/04/29 00:36:28;;;;;;;4.30;3.30;;;13.50;99.90;;;;;;5055006;28;20209;-83
2021/04/29 00:38:54;;;;;;;5.10;3.43;;;13.40;99.90;;;;;;5054186;28;20401;-80
2021/04/29 00:41:21;;;;;;;6.33;2.93;;;13.40;99.90;;;;;;5054157;28;20456;-83
2021/04/29 00:43:46;;;;;;;7.60;3.40;;;13.30;99.90;;;;;;5055171;28;20178;-79
2021/04/29 00:46:13;;;;;;;3.63;3.13;;;13.50;99.90;;;;;;5053475;28;20419;-79
2021/04/29 00:48:43;;;;;;;3.80;3.40;;;13.40;99.90;;;;;;5055918;28;20188;-81
2021/04/29 00:51:09;;;;;;;5.13;3.40;;;13.30;99.90;;;;;;5055247;28;20412;-81
2021/04/29 00:53:41;;;;;;;6.60;3.00;;;13.20;99.90;;;;;;5055017;28;20391;-80
2021/04/29 00:56:07;;;;;;;3.73;2.70;;;13.30;99.90;;;;;;5053290;28;20406;-80
2021/04/29 00:58:34;;;;;;;6.33;4.10;;;13.20;99.90;;;;;;5054181;28;20412;-79
2021/04/29 01:01:00;;;;;;;5.10;3.57;;;13.10;99.90;;;;;;5053799;28;20965;-78
2021/04/29 01:03:43;;;;;;;3.30;3.00;;;13.20;99.90;;;;;;5037110;28;20416;-80
2021/04/29 01:06:19;;;;;;;5.10;2.87;;;13.10;99.90;;;;;;5054324;28;20777;-78
2021/04/29 01:08:57;;;;;;;5.30;3.40;;;13.10;99.90;;;;;;5054951;28;20362;-82
2021/04/29 01:11:25;;;;;;;8.40;3.73;;;13.10;99.90;;;;;;5054738;28;20399;-81
2021/04/29 01:13:55;;;;;;;4.03;3.10;;;13.00;99.90;;;;;;5054943;28;20393;-80
2021/04/29 01:16:23;;;;;;;3.90;3.07;;;13.00;99.90;;;;;;5054136;28;20523;-80
2021/04/29 01:18:49;;;;;;;6.10;3.93;;;13.00;99.90;;;;;;5053213;28;20371;-79
2021/04/29 01:21:16;;;;;;;5.57;3.57;;;12.90;99.90;;;;;;5054494;28;20407;-83
2021/04/29 01:23:44;;;;;;;4.20;3.33;;;12.90;99.90;;;;;;5053127;28;20458;-85
2021/04/29 01:26:32;;;;;;;6.17;3.90;;;12.90;99.90;;;;;;5054192;28;20407;-83
2021/04/29 01:29:01;;;;;;;3.63;2.90;;;12.90;99.90;;;;;;5053498;28;20433;-79
2021/04/29 01:31:33;;;;;;;4.73;4.27;;;13.00;99.90;;;;;;5054494;28;20404;-83
2021/04/29 01:34:01;;;;;;;4.80;3.73;;;13.00;99.90;;;;;;5054316;28;20396;-81
2021/04/29 01:36:28;;;;;;;6.47;3.97;;;12.90;99.90;;;;;;5052541;28;20452;-82
2021/04/29 01:38:56;;;;;;;8.10;4.13;;;13.00;99.90;;;;;;5052937;28;20446;-81
2021/04/29 01:41:23;;;;;;;5.73;4.23;;;13.10;99.90;;;;;;5054143;28;20415;-83
2021/04/29 01:43:49;;;;;;;6.03;4.40;;;13.10;99.90;;;;;;5054085;28;20403;-79
2021/04/29 01:46:15;;;;;;;4.70;4.03;;;13.00;99.90;;;;;;5053868;28;20429;-85
2021/04/29 01:48:40;;;;;;;8.13;4.67;;;13.00;99.90;;;;;;5052807;28;20412;-77
2021/04/29 01:51:07;;;;;;;6.60;4.80;;;13.00;99.90;;;;;;5052552;28;21216;-80
2021/04/29 01:53:34;;;;;;;6.10;5.00;;;13.10;99.90;;;;;;5054097;28;20165;-80
2021/04/29 01:56:00;;;;;;;6.23;4.33;;;13.20;99.90;;;;;;5051976;28;20438;-80
2021/04/29 01:58:26;;;;;;;4.47;3.90;;;13.10;99.90;;;;;;5052308;28;20928;-82
2021/04/29 02:00:52;;;;;;;5.13;3.57;;;13.10;99.90;;;;;;5051982;28;20409;-83
2021/04/29 02:03:19;;;;;;;7.20;4.93;;;12.90;99.90;;;;;;5053694;28;20631;-82
2021/04/29 02:05:45;;;;;;;5.30;4.67;;;12.90;99.90;;;;;;5051939;28;20519;-83
2021/04/29 02:08:10;;;;;;;7.00;5.20;;;12.90;99.90;;;;;;5036043;28;20477;-84
2021/04/29 02:10:36;;;;;;;5.33;4.67;;;12.90;99.90;;;;;;5052587;28;20684;-85
2021/04/29 02:13:08;;;;;;;6.77;4.97;;;13.00;99.90;;;;;;5052500;28;20177;-82
2021/04/29 02:15:41;;;;;;;7.23;5.10;;;12.90;99.90;;;;;;5053405;28;20776;-83
2021/04/29 02:18:12;;;;;;;7.10;4.80;;;12.90;99.90;;;;;;5053726;28;20470;-83
2021/04/29 02:20:44;;;;;;;9.13;5.00;;;12.90;99.90;;;;;;5054317;28;20374;-83
2021/04/29 02:23:12;;;;;;;5.63;5.00;;;12.90;99.90;;;;;;5053110;28;20404;-82
2021/04/29 02:25:40;;;;;;;6.03;5.43;;;12.90;99.90;;;;;;5053817;28;20453;-81
2021/04/29 02:28:06;;;;;;;6.20;4.93;;;12.90;99.90;;;;;;5053124;28;20715;-83
2021/04/29 02:30:33;;;;;;;7.07;5.50;;;12.90;99.90;;;;;;5054336;28;20412;-83
2021/04/29 02:33:01;;;;;;;8.90;5.57;;;12.80;99.90;;;;;;5053024;28;20446;-81
2021/04/29 02:35:27;;;;;;;6.93;5.63;;;12.70;99.90;;;;;;5053196;28;20511;-83
2021/04/29 02:37:54;;;;;;;10.50;5.10;;;12.60;99.90;;;;;;5052178;28;20458;-81
2021/04/29 02:40:21;;;;;;;7.37;6.27;;;12.60;99.90;;;;;;5052150;28;20481;-82
2021/04/29 02:42:47;;;;;;;8.83;6.30;;;12.60;99.90;;;;;;5053465;28;20408;-81
2021/04/29 02:45:15;;;;;;;7.60;5.73;;;12.70;99.90;;;;;;5051981;28;20408;-79
2021/04/29 02:47:46;;;;;;;10.57;6.00;;;12.50;99.90;;;;;;5053414;28;20787;-80
2021/04/29 02:50:15;;;;;;;7.13;5.50;;;12.60;99.90;;;;;;5052001;28;20992;-85
2021/04/29 02:52:43;;;;;;;10.40;6.73;;;12.60;99.90;;;;;;5053362;28;20510;-82
2021/04/29 02:55:10;;;;;;;7.80;6.07;;;12.50;99.90;;;;;;5052859;28;20391;-84
2021/04/29 02:57:36;;;;;;;8.03;6.00;;;12.50;99.90;;;;;;5052917;28;20452;-82
2021/04/29 03:00:06;;;;;;;8.00;5.97;;;12.50;99.90;;;;;;5053224;28;20379;-82
2021/04/29 03:02:31;;;;;;;10.37;6.00;;;12.50;99.90;;;;;;5053315;28;20407;-81
2021/04/29 03:04:57;;;;;;;6.77;6.07;;;12.40;99.90;;;;;;5051159;28;20412;-84
2021/04/29 03:07:22;;;;;;;6.13;5.53;;;12.40;99.90;;;;;;5052535;28;20564;-82
2021/04/29 03:09:48;;;;;;;6.37;5.40;;;12.30;99.90;;;;;;5052972;28;20185;-83
2021/04/29 03:12:14;;;;;;;7.47;5.73;;;12.30;99.90;;;;;;5055098;28;20180;-83
2021/04/29 03:14:39;;;;;;;8.53;6.10;;;12.30;99.90;;;;;;5056462;28;20184;-82
2021/04/29 03:17:05;;;;;;;8.57;6.50;;;12.20;99.90;;;;;;5055455;28;20245;-84
2021/04/29 03:19:31;;;;;;;7.87;6.30;;;12.20;99.90;;;;;;5056584;28;20170;-79
2021/04/29 03:21:56;;;;;;;10.13;6.47;;;12.10;99.90;;;;;;5055543;28;20181;-87
2021/04/29 03:24:22;;;;;;;7.90;6.03;;;12.10;99.90;;;;;;5039090;28;20173;-83
2021/04/29 03:26:47;;;;;;;7.17;6.47;;;12.10;99.90;;;;;;5056522;28;20202;-81
2021/04/29 03:29:13;;;;;;;8.17;6.23;;;12.20;99.90;;;;;;5056777;28;20252;-78
2021/04/29 03:31:39;;;;;;;6.47;5.63;;;12.30;99.90;;;;;;5055223;28;20735;-85
2021/04/29 03:34:05;;;;;;;7.00;5.30;;;12.20;99.90;;;;;;5055326;28;20642;-83
2021/04/29 03:36:31;;;;;;;7.70;6.47;;;12.20;99.90;;;;;;5055023;28;20442;-84
2021/04/29 03:38:56;;;;;;;7.50;6.67;;;12.10;99.90;;;;;;5055416;28;20206;-83
2021/04/29 03:41:22;;;;;;;7.43;6.23;;;12.10;99.90;;;;;;5038446;28;20180;-85
2021/04/29 03:43:48;;;;;;;7.57;6.37;;;12.10;99.90;;;;;;5056093;28;20181;-82
2021/04/29 03:46:13;;;;;;;6.73;6.07;;;12.10;99.90;;;;;;5054505;28;20279;-85
2021/04/29 03:48:39;;;;;;;11.93;7.30;;;12.00;99.90;;;;;;5038422;28;20519;-84
2021/04/29 03:51:05;;;;;;;9.83;8.03;;;12.00;99.90;;;;;;5055001;28;20177;-83
2021/04/29 03:53:31;;;;;;;10.00;7.87;;;12.00;99.90;;;;;;5054885;28;20303;-81
2021/04/29 03:55:57;;;;;;;8.50;7.63;;;11.90;99.90;;;;;;5055345;28;20669;-82
2021/04/29 03:58:24;;;;;;;15.50;8.80;;;11.90;99.90;;;;;;5054477;28;20513;-81
2021/04/29 04:00:49;;;;;;;9.33;7.53;;;11.90;99.90;;;;;;5038280;28;20771;-83
2021/04/29 04:03:15;;;;;;;10.43;8.13;;;11.90;99.90;;;;;;5055887;28;20419;-82
2021/04/29 04:05:41;;;;;;;11.13;7.97;;;11.80;99.90;;;;;;5054288;28;20201;-83
2021/04/29 04:08:06;;;;;;;10.43;7.73;;;11.80;99.90;;;;;;5056604;28;20204;-83
2021/04/29 04:10:32;;;;;;;10.70;9.00;;;11.80;99.90;;;;;;5055707;28;20182;-81
2021/04/29 04:12:58;;;;;;;12.43;8.53;;;11.80;99.90;;;;;;5056345;28;20189;-82
2021/04/29 04:15:23;;;;;;;11.77;8.40;;;11.90;99.90;;;;;;5037802;28;20183;-81
2021/04/29 04:17:49;;;;;;;10.87;8.93;;;11.80;99.90;;;;;;5054271;28;20256;-81
2021/04/29 04:20:15;;;;;;;10.60;9.50;;;11.80;99.90;;;;;;5054421;28;20255;-84
2021/04/29 04:22:40;;;;;;;13.87;8.93;;;11.70;99.90;;;;;;5053291;28;20182;-80
2021/04/29 04:25:06;;;;;;;10.70;9.00;;;11.60;99.90;;;;;;5055069;28;20184;-82
2021/04/29 04:27:33;;;;;;;12.23;9.07;;;11.50;99.90;;;;;;5054826;28;20297;-80
2021/04/29 04:29:59;;;;;;;15.17;8.37;;;11.40;99.90;;;;;;5054211;28;20420;-81
2021/04/29 04:32:24;;;;;;;12.67;8.33;;;11.50;99.90;;;;;;5054350;28;20480;-80
2021/04/29 04:34:50;;;;;;;9.97;8.50;;;11.40;99.90;;;;;;5055203;28;20482;-81
2021/04/29 04:37:15;;;;;;;12.37;9.13;;;11.40;99.90;;;;;;5053855;28;20669;-83
2021/04/29 04:39:41;;;;;;;16.33;9.73;;;11.30;99.90;;;;;;5053881;28;20235;-80
2021/04/29 04:42:07;;;;;;;11.43;8.60;;;11.20;99.90;;;;;;5036425;28;20235;-79
2021/04/29 04:44:32;;;;;;;13.30;9.53;;;11.20;99.90;;;;;;5053544;28;20189;-81
2021/04/29 04:46:58;;;;;;;10.60;8.00;;;11.10;99.90;;;;;;5047967;28;20201;-81
2021/04/29 04:49:24;;;;;;;10.00;8.80;;;11.00;99.90;;;;;;5053684;28;20211;-81
2021/04/29 04:51:49;;;;;;;10.77;8.43;;;11.00;99.90;;;;;;5053672;28;20185;-82
2021/04/29 04:54:17;;;;;;;12.73;9.47;;;11.10;99.90;;;;;;5053626;28;20221;-80
2021/04/29 04:56:45;;;;;;;11.13;9.40;;;11.00;99.90;;;;;;5037187;28;20197;-82
2021/04/29 04:59:11;;;;;;;16.43;10.07;;;10.80;99.90;;;;;;5053637;28;20454;-79
2021/04/29 05:01:37;;;;;;;16.87;9.30;;;10.80;99.90;;;;;;5053595;28;20494;-81
2021/04/29 05:04:03;;;;;;;11.50;8.90;;;10.80;99.90;;;;;;5053396;28;20398;-82
2021/04/29 05:06:28;;;;;;;18.10;10.57;;;10.70;99.90;;;;;;5052897;28;20205;-80
2021/04/29 05:08:54;;;;;;;12.20;8.83;;;10.70;99.90;;;;;;5053409;28;20412;-83
2021/04/29 05:11:20;;;;;;;14.70;10.10;;;10.70;99.90;;;;;;5053583;28;20173;-82
2021/04/29 05:13:45;;;;;;;16.90;11.73;;;10.70;99.90;;;;;;5053102;28;20208;-82
2021/04/29 05:16:11;;;;;;;13.37;10.10;;;10.70;99.90;;;;;;5054241;28;20193;-82
2021/04/29 05:18:37;;;;;;;11.90;10.00;;;10.70;99.90;;;;;;5036607;28;21107;-80
2021/04/29 05:21:03;;;;;;;17.10;9.27;;;10.80;99.90;;;;;;5053261;28;20169;-81
2021/04/29 05:23:28;;;;;;;14.63;10.50;;;10.70;99.90;;;;;;5036484;28;20586;-80
2021/04/29 05:25:54;;;;;;;17.50;10.10;;;10.70;99.90;;;;;;5052891;28;20283;-84
2021/04/29 05:28:19;;;;;;;14.40;10.70;;;10.70;99.90;;;;;;5054124;28;20184;-83
2021/04/29 05:30:45;;;;;;;15.40;10.47;;;10.70;99.90;;;;;;5054004;28;20178;-81
2021/04/29 05:33:11;;;;;;;12.83;10.60;;;10.60;99.90;;;;;;5036198;28;20185;-77
2021/04/29 05:35:36;;;;;;;13.73;11.63;;;10.70;99.90;;;;;;5053694;28;20550;-78
2021/04/29 05:38:02;;;;;;;16.00;12.10;;;10.70;99.90;;;;;;5053725;28;20221;-77
2021/04/29 05:40:28;;;;;;;15.57;12.27;;;10.70;99.90;;;;;;5053789;28;20180;-77
2021/04/29 05:42:53;;;;;;;15.23;12.80;;;10.60;99.90;;;;;;5052397;28;20178;-79
2021/04/29 05:45:19;;;;;;;15.23;13.63;;;10.70;99.90;;;;;;5052250;28;20456;-77
2021/04/29 05:47:45;;;;;;;18.77;14.27;;;10.70;99.90;;;;;;5053217;28;20680;-82
2021/04/29 05:50:11;;;;;;;15.13;13.53;;;10.70;99.90;;;;;;5035965;28;20182;-81
2021/04/29 05:52:38;;;;;;;17.03;13.00;;;10.70;99.90;;;;;;5053690;28;20276;-79
2021/04/29 05:55:05;;;;;;;17.52;14.45;;;10.80;99.90;;;;;;5053407;28;20412;-83
2021/04/29 05:57:30;;;;;;;18.27;13.00;;;10.70;99.90;;;;;;5053650;28;20568;-81
2021/04/29 05:59:56;;;;;;;16.67;12.47;;;10.80;99.90;;;;;;5053933;28;20420;-80
2021/04/29 06:02:21;;;;;;;16.03;12.10;;;10.70;99.90;;;;;;5053863;28;20700;-79
2021/04/29 06:04:47;;;;;;;17.97;14.13;;;10.70;99.90;;;;;;5053016;28;20174;-83
2021/04/29 06:07:14;;;;;;;19.43;14.90;;;10.70;99.90;;;;;;5052272;28;20664;-83
2021/04/29 06:09:40;;;;;;;22.27;13.70;;;10.70;99.90;;;;;;5053520;28;20272;-83
2021/04/29 06:12:06;;;;;;;20.20;15.13;;;10.80;99.90;;;;;;5053608;28;20410;-82
2021/04/29 06:14:32;;;;;;;18.30;13.87;;;10.80;99.90;;;;;;5053209;28;20417;-83
2021/04/29 06:16:57;;;;;;;18.50;14.50;;;10.90;99.90;;;;;;5035298;28;20495;-82
2021/04/29 06:19:23;;;;;;;21.07;14.20;;;11.00;99.90;;;;;;5053434;28;20736;-82
2021/04/29 06:21:49;;;;;;;19.10;14.53;;;11.00;99.90;;;;;;5052129;28;20184;-83
2021/04/29 06:24:15;;;;;;;19.30;14.03;;;11.10;99.90;;;;;;5052326;28;20276;-82
2021/04/29 06:26:41;;;;;;;27.50;17.97;;;11.30;99.90;;;;;;5051678;28;20472;-82
2021/04/29 06:29:07;;;;;;;30.20;21.50;;;11.30;99.90;;;;;;5052018;28;20515;-82
2021/04/29 06:31:58;;;;;;;32.70;24.77;;;11.30;99.90;;;;;;5051868;28;20387;-82
2021/04/29 06:34:58;;;;;;;33.40;22.60;;;11.20;99.90;;;;;;5051939;28;20412;-82
2021/04/29 06:37:24;;;;;;;41.90;25.70;;;11.30;99.90;;;;;;5051700;28;20437;-80
2021/04/29 06:39:49;;;;;;;34.30;24.43;;;11.30;99.90;;;;;;5052885;28;20408;-81
2021/04/29 06:42:15;;;;;;;43.07;28.20;;;11.30;99.90;;;;;;5052940;28;20653;-80
2021/04/29 06:44:41;;;;;;;40.37;26.10;;;11.30;99.90;;;;;;5051500;28;20177;-80
2021/04/29 06:47:08;;;;;;;46.23;31.30;;;11.30;99.90;;;;;;5037374;28;20489;-80
2021/04/29 06:49:34;;;;;;;40.57;27.37;;;11.40;99.90;;;;;;5057411;28;20216;-81
2021/04/29 06:52:00;;;;;;;40.10;30.70;;;11.50;99.90;;;;;;5057301;28;20419;-81
2021/04/29 06:54:26;;;;;;;45.83;30.13;;;11.50;99.90;;;;;;5057101;28;20767;-81
2021/04/29 06:56:55;;;;;;;48.20;32.57;;;11.60;99.90;;;;;;5055825;28;20613;-79
2021/04/29 06:59:21;;;;;;;43.87;33.03;;;11.60;99.90;;;;;;5058427;28;20214;-81
2021/04/29 07:01:47;;;;;;;42.87;33.03;;;11.60;99.90;;;;;;5057854;28;20423;-81
2021/04/29 07:04:13;;;;;;;46.63;32.53;;;11.60;99.90;;;;;;5055747;28;20416;-79
2021/04/29 07:06:38;;;;;;;45.47;31.43;;;11.60;99.90;;;;;;5056637;28;20435;-80
2021/04/29 07:09:05;;;;;;;42.30;29.27;;;11.70;99.90;;;;;;5055671;28;20178;-80
2021/04/29 07:11:31;;;;;;;42.37;30.83;;;11.70;99.90;;;;;;5055868;28;20252;-81
2021/04/29 07:13:57;;;;;;;51.50;34.37;;;11.70;99.90;;;;;;5056905;28;20412;-81
2021/04/29 07:16:23;;;;;;;46.43;34.70;;;11.60;99.90;;;;;;5056417;28;20813;-80
2021/04/29 07:18:52;;;;;;;41.10;31.00;;;11.80;99.90;;;;;;5056929;28;20414;-82
2021/04/29 07:21:19;;;;;;;42.10;32.67;;;11.90;99.90;;;;;;5056550;28;20173;-81
2021/04/29 07:23:48;;;;;;;40.30;28.97;;;11.80;99.90;;;;;;5057145;28;20430;-82
2021/04/29 07:26:18;;;;;;;53.20;34.43;;;11.80;99.90;;;;;;5038956;28;20421;-81
2021/04/29 07:28:44;;;;;;;48.60;33.73;;;11.70;99.90;;;;;;5038790;28;20803;-81
2021/04/29 07:31:10;;;;;;;42.47;32.70;;;11.80;99.90;;;;;;5038694;28;20390;-81
2021/04/29 07:33:36;;;;;;;46.23;35.07;;;11.70;99.90;;;;;;5055125;28;20909;-81
2021/04/29 07:36:03;;;;;;;46.43;34.10;;;11.90;99.90;;;;;;5056140;28;20423;-80
2021/04/29 07:38:28;;;;;;;45.67;34.07;;;11.90;99.90;;;;;;5056496;28;20422;-82
2021/04/29 07:40:57;;;;;;;45.40;34.30;;;12.10;99.90;;;;;;5056354;28;20418;-82
2021/04/29 07:43:23;;;;;;;36.87;27.43;;;12.10;99.90;;;;;;5056229;28;20181;-82
2021/04/29 07:45:48;;;;;;;47.67;35.97;;;12.00;99.90;;;;;;5054677;28;20418;-82
2021/04/29 07:48:14;;;;;;;43.77;31.97;;;12.20;99.90;;;;;;5056244;28;20174;-82
2021/04/29 07:50:39;;;;;;;46.97;32.80;;;12.40;99.90;;;;;;5056240;28;20181;-81
2021/04/29 07:53:05;;;;;;;43.27;29.33;;;12.60;99.90;;;;;;5056063;28;20531;-82
2021/04/29 07:55:32;;;;;;;46.23;32.70;;;12.40;99.90;;;;;;5055689;28;20182;-83
2021/04/29 07:57:57;;;;;;;48.50;33.00;;;12.40;99.90;;;;;;5055661;28;20418;-81
2021/04/29 08:00:26;;;;;;;45.90;32.40;;;12.30;99.90;;;;;;5054635;28;20174;-83
2021/04/29 08:02:51;;;;;;;55.37;35.63;;;12.20;99.90;;;;;;5054559;28;20568;-82
2021/04/29 08:05:17;;;;;;;50.63;32.77;;;12.30;99.90;;;;;;5054387;28;20427;-82
2021/04/29 08:07:43;;;;;;;45.27;32.30;;;12.40;99.90;;;;;;5037901;28;20689;-80
2021/04/29 08:10:10;;;;;;;48.30;34.40;;;12.40;99.90;;;;;;5054391;28;20482;-81
2021/04/29 08:12:36;;;;;;;43.57;31.63;;;12.60;99.90;;;;;;5039381;28;20174;-84
2021/04/29 08:15:04;;;;;;;42.07;31.13;;;12.70;99.90;;;;;;5056248;28;20397;-82
2021/04/29 08:17:30;;;;;;;53.53;31.73;;;12.80;99.90;;;;;;5054352;28;20463;-81
2021/04/29 08:19:56;;;;;;;43.27;33.87;;;12.70;99.90;;;;;;5055434;28;20423;-81
2021/04/29 08:22:25;;;;;;;47.83;31.33;;;12.80;99.90;;;;;;5054373;28;20387;-84
2021/04/29 08:25:15;;;;;;;44.30;32.93;;;13.00;99.90;;;;;;5038006;28;20412;-86
2021/04/29 08:27:43;;;;;;;44.57;32.20;;;13.20;99.90;;;;;;5046651;28;20440;-86
2021/04/29 08:30:27;;;;;;;43.00;32.87;;;13.20;99.90;;;;;;5022275;28;20936;-86
2021/04/29 08:33:21;;;;;;;36.53;27.60;;;13.00;99.90;;;;;;5056304;28;20394;-87
2021/04/29 08:35:48;;;;;;;40.43;30.07;;;13.30;99.90;;;;;;5039037;28;20474;-87
2021/04/29 08:38:14;;;;;;;40.40;29.70;;;13.00;99.90;;;;;;5039588;28;20455;-87
2021/04/29 08:40:40;;;;;;;38.20;32.17;;;13.40;99.90;;;;;;5054546;28;20390;-87
2021/04/29 08:43:06;;;;;;;42.53;33.00;;;13.50;99.90;;;;;;5054397;28;20173;-84
2021/04/29 08:45:37;;;;;;;43.70;31.23;;;13.60;99.90;;;;;;5054829;28;20181;-85
2021/04/29 08:48:12;;;;;;;39.93;31.60;;;13.50;99.90;;;;;;5037442;28;20177;-88
2021/04/29 08:50:44;;;;;;;37.90;29.90;;;13.40;99.90;;;;;;5037573;28;20401;-83
2021/04/29 08:53:09;;;;;;;41.97;30.90;;;13.00;99.90;;;;;;5053543;28;20401;-85
2021/04/29 08:55:37;;;;;;;44.93;33.80;;;13.20;99.90;;;;;;5054507;28;20502;-84
2021/04/29 08:58:04;;;;;;;41.33;31.93;;;13.30;99.90;;;;;;5053344;28;20212;-81
2021/04/29 09:00:29;;;;;;;37.50;29.20;;;13.60;99.90;;;;;;5053389;28;20424;-84
2021/04/29 09:02:56;;;;;;;40.50;30.83;;;13.50;99.90;;;;;;5054696;28;20470;-81
2021/04/29 09:05:31;;;;;;;45.83;33.27;;;13.20;99.90;;;;;;5054977;28;20199;-85
2021/04/29 09:08:15;;;;;;;42.13;30.57;;;13.20;99.90;;;;;;5054417;28;20397;-81
2021/04/29 09:10:43;;;;;;;40.53;29.17;;;13.30;99.90;;;;;;5054119;28;20425;-83
2021/04/29 09:13:20;;;;;;;43.50;34.33;;;13.10;99.90;;;;;;5037136;28;20403;-81
2021/04/29 09:15:48;;;;;;;43.57;31.40;;;13.00;99.90;;;;;;5054203;28;20430;-81
2021/04/29 09:18:15;;;;;;;45.53;31.70;;;13.30;99.90;;;;;;5053387;28;20819;-83
2021/04/29 09:21:02;;;;;;;53.80;30.40;;;13.60;99.90;;;;;;5053213;28;20412;-83
2021/04/29 09:23:40;;;;;;;39.70;30.70;;;13.30;99.90;;;;;;5053212;28;20383;-81
2021/04/29 09:26:10;;;;;;;44.20;35.20;;;;;;;;;;5052826;28;20497;-82
2021/04/29 09:28:36;;;;;;;42.50;31.20;;;;;;;;;;5054304;28;20407;-80
2021/04/29 09:31:07;;;;;;;45.40;32.07;;;;;;;;;;5054246;28;20401;-80
2021/04/29 09:33:34;;;;;;;38.40;26.73;;;;;;;;;;5052957;28;20390;-80
2021/04/29 09:36:00;;;;;;;48.40;32.80;;;;;;;;;;5053807;28;20416;-81
2021/04/29 09:38:53;;;;;;;42.43;29.50;;;;;;;;;;5054185;28;20451;-80
2021/04/29 09:41:21;;;;;;;38.60;28.83;;;;;;;;;;5050340;28;20397;-80
2021/04/29 09:43:55;;;;;;;41.77;32.80;;;;;;;;;;5054099;28;20418;-81
2021/04/29 09:46:21;;;;;;;40.50;29.27;;;;;;;;;;5052456;28;20435;-81
2021/04/29 09:48:49;;;;;;;35.80;26.73;;;;;;;;;;5052751;28;20487;-80
2021/04/29 09:51:17;;;;;;;39.80;31.50;;;;;;;;;;5052561;28;20399;-80
2021/04/29 09:53:52;;;;;;;39.60;30.93;;;;;;;;;;5052734;28;20402;-80
2021/04/29 09:56:33;;;;;;;33.27;25.03;;;;;;;;;;5052980;28;20439;-80
2021/04/29 09:59:01;;;;;;;39.60;28.87;;;;;;;;;;5052544;28;20410;-80
2021/04/29 10:01:27;;;;;;;40.57;30.47;;;;;;;;;;5038340;28;20412;-82
2021/04/29 10:04:03;;;;;;;35.10;28.30;;;;;;;;;;5053646;28;20400;-80
2021/04/29 10:06:29;;;;;;;39.90;27.87;;;;;;;;;;5051990;28;20923;-80
2021/04/29 10:08:55;;;;;;;36.53;29.77;;;;;;;;;;5053325;28;20391;-81
2021/04/29 10:11:22;;;;;;;42.00;30.80;;;;;;;;;;5052264;28;20809;-82
2021/04/29 10:13:53;;;;;;;41.13;31.10;;;;;;;;;;5052302;28;20386;-80
2021/04/29 10:16:20;;;;;;;38.20;27.70;;;;;;;;;;5053056;28;20399;-83
2021/04/29 10:18:46;;;;;;;37.70;30.30;;;;;;;;;;5053315;28;20383;-81
2021/04/29 10:21:15;;;;;;;31.00;21.53;;;;;;;;;;5052605;28;20375;-80
2021/04/29 10:23:41;;;;;;;32.17;27.53;;;;;;;;;;5052736;28;20451;-80
2021/04/29 10:26:09;;;;;;;30.70;20.60;;;;;;;;;;5053114;28;20927;-83
2021/04/29 10:28:43;;;;;;;32.17;26.80;;;;;;;;;;5053563;28;20758;-80
2021/04/29 10:31:22;;;;;;;30.53;23.50;;;;;;;;;;5053629;28;20374;-80
2021/04/29 10:33:50;;;;;;;34.37;26.23;;;;;;;;;;5051935;28;20717;-80
2021/04/29 10:36:16;;;;;;;27.90;23.17;;;;;;;;;;5053067;28;20395;-81
2021/04/29 10:38:42;;;;;;;34.10;23.93;;;;;;;;;;5053411;28;20463;-81
2021/04/29 10:41:19;;;;;;;31.63;22.27;;;;;;;;;;5053150;28;20382;-80
2021/04/29 10:43:51;;;;;;;32.53;23.90;;;;;;;;;;5053104;28;20715;-82
2021/04/29 10:46:26;;;;;;;29.80;22.97;;;;;;;;;;5087410;22;20531;-79
2021/04/29 10:48:52;;;;;;;23.23;17.60;;;;;;;;;;5052917;28;20381;-81
2021/04/29 10:51:30;;;;;;;22.63;17.83;;;10.70;99.90;;;;;;5053078;28;20482;-79
2021/04/29 10:54:12;;;;;;;35.10;21.77;;;10.10;99.90;;;;;;5053253;28;20374;-76
2021/04/29 10:56:38;;;;;;;21.43;16.97;;;9.70;99.90;;;;;;5052494;28;20890;-77
2021/04/29 10:59:09;;;;;;;22.97;17.20;;;9.60;99.90;;;;;;5052841;28;20887;-78
2021/04/29 11:01:40;;;;;;;16.92;13.00;;;9.70;99.90;;;;;;5052791;28;20557;-76
2021/04/29 11:04:17;;;;;;;15.02;10.98;;;9.60;99.90;;;;;;5052864;28;20525;-78
2021/04/29 11:06:43;;;;;;;17.67;12.07;;;9.60;99.90;;;;;;5052343;28;20533;-76
2021/04/29 11:09:24;;;;;;;15.37;10.43;;;9.70;99.90;;;;;;5051457;28;20256;-80
2021/04/29 11:12:16;;;;;;;12.87;9.87;;;9.70;99.90;;;;;;5053043;28;20411;-80
2021/04/29 11:14:44;;;;;;;9.15;7.93;;;9.90;99.90;;;;;;5049068;28;20523;-79
2021/04/29 11:17:26;;;;;;;7.30;6.00;;;9.80;99.90;;;;;;5052452;28;20197;-80
2021/04/29 11:19:57;;;;;;;14.15;10.52;;;9.80;99.90;;;;;;5051663;28;20989;-80
2021/04/29 11:22:33;;;;;;;16.47;10.33;;;9.70;99.90;;;;;;5051617;28;20594;-79
2021/04/29 11:25:00;;;;;;;15.23;11.83;;;9.60;99.90;;;;;;5052497;28;20403;-81
2021/04/29 11:27:32;;;;;;;14.20;12.03;;;10.10;99.90;;;;;;5052724;28;20476;-81
2021/04/29 11:30:06;;;;;;;13.70;10.13;;;10.80;99.90;;;;;;5052736;28;20791;-84
2021/04/29 11:32:34;;;;;;;16.60;12.80;;;11.20;99.90;;;;;;5054171;28;20413;-81
2021/04/29 11:35:19;;;;;;;20.30;13.33;;;11.40;99.90;;;;;;5056223;28;20715;-81
2021/04/29 11:37:44;;;;;;;14.40;12.23;;;12.10;99.90;;;;;;5056219;28;20463;-82
2021/04/29 11:40:13;;;;;;;16.10;12.53;;;12.10;99.90;;;;;;5056933;28;20402;-84
2021/04/29 11:42:43;;;;;;;15.83;12.60;;;12.00;99.90;;;;;;5055327;28;20170;-81
2021/04/29 11:45:14;;;;;;;19.83;14.40;;;11.90;99.90;;;;;;5038500;28;20470;-84
2021/04/29 11:48:03;;;;;;;13.30;11.83;;;12.00;99.90;;;;;;5056181;28;20455;-82
2021/04/29 11:50:34;;;;;;;13.77;10.63;;;12.30;99.90;;;;;;5054944;28;20398;-83
2021/04/29 11:53:04;;;;;;;17.27;12.30;;;13.00;99.90;;;;;;5056144;28;20412;-80
2021/04/29 11:55:30;;;;;;;8.87;7.97;;;13.40;99.90;;;;;;5054221;28;20890;-82
2021/04/29 11:58:08;;;;;;;10.13;7.97;;;12.50;99.90;;;;;;5056254;28;20451;-81
2021/04/29 12:00:36;;;;;;;9.10;8.00;;;11.90;99.90;;;;;;5056073;28;20378;-81
2021/04/29 12:03:09;;;;;;;15.57;10.27;;;11.20;99.90;;;;;;5056566;28;20443;-83
2021/04/29 12:05:42;;;;;;;13.57;10.50;;;10.80;99.90;;;;;;5055776;28;20462;-85
2021/04/29 12:08:24;;;;;;;10.60;9.33;;;10.50;99.90;;;;;;5055938;28;20728;-77
2021/04/29 12:10:56;;;;;;;7.83;6.93;;;10.30;99.90;;;;;;5054918;28;20448;-83
2021/04/29 12:13:34;;;;;;;12.57;10.17;;;10.40;99.90;;;;;;5054828;28;20398;-82
2021/04/29 12:16:03;;;;;;;14.17;9.97;;;10.30;99.90;;;;;;5054106;28;20926;-85
2021/04/29 12:18:30;;;;;;;12.50;7.50;;;10.30;99.90;;;;;;5055877;28;20801;-83
2021/04/29 12:20:57;;;;;;;12.50;9.13;;;10.40;99.90;;;;;;5054511;28;20416;-85
2021/04/29 12:23:22;;;;;;;15.33;9.53;;;10.20;99.90;;;;;;5055619;28;20587;-87
2021/04/29 12:26:02;;;;;;;17.50;9.87;;;10.40;99.90;;;;;;5054046;28;20534;-81
2021/04/29 12:28:32;;;;;;;14.47;9.43;;;10.60;99.90;;;;;;5054550;28;20177;-82
2021/04/29 12:30:58;;;;;;;10.83;8.47;;;10.50;99.90;;;;;;5055441;28;20383;-85
2021/04/29 12:33:24;;;;;;;9.50;8.53;;;10.30;99.90;;;;;;5054187;28;20386;-83
2021/04/29 12:35:50;;;;;;;14.70;8.40;;;10.50;99.90;;;;;;5055233;28;20427;-85
2021/04/29 12:38:20;;;;;;;6.27;5.57;;;10.70;99.90;;;;;;5055438;28;20444;-83
2021/04/29 12:40:49;;;;;;;12.77;6.40;;;11.10;99.90;;;;;;5052124;28;20188;-83
2021/04/29 12:43:23;;;;;;;7.37;5.57;;;11.40;99.90;;;;;;5037224;28;20946;-83
2021/04/29 12:45:55;;;;;;;8.10;6.10;;;11.40;99.90;;;;;;5033222;28;20808;-83
2021/04/29 12:48:41;;;;;;;7.50;6.00;;;11.30;99.90;;;;;;5035349;28;20455;-81
2021/04/29 12:51:25;;;;;;;7.47;5.43;;;11.40;99.90;;;;;;5033182;28;20420;-81
2021/04/29 12:54:10;;;;;;;7.70;6.20;;;10.90;99.90;;;;;;5033998;28;20431;-83